createdAt,value
2022-11-22T00:01:33.553Z,70.50
2022-11-22T00:04:01.537Z,65.30
2022-11-22T00:06:29.494Z,63.60
2022-11-22T00:08:57.384Z,64.90
2022-11-22T00:11:25.287Z,68.60
2022-11-22T00:13:53.220Z,69.00
2022-11-22T00:16:21.156Z,72.20
2022-11-22T00:18:49.060Z,66.30
2022-11-22T00:21:17.073Z,65.00
2022-11-22T00:23:44.998Z,61.90
2022-11-22T00:26:12.933Z,59.20
2022-11-22T00:28:40.950Z,65.10
2022-11-22T00:31:08.948Z,63.30
2022-11-22T00:33:36.843Z,58.40
2022-11-22T00:36:05.011Z,53.60
2022-11-22T00:38:33.073Z,53.30
2022-11-22T00:41:01.017Z,55.10
2022-11-22T00:43:28.959Z,61.70
2022-11-22T00:45:56.937Z,62.90
2022-11-22T00:48:24.870Z,65.00
2022-11-22T00:50:52.889Z,68.10
2022-11-22T00:53:20.781Z,65.30
2022-11-22T00:55:49.250Z,62.40
2022-11-22T00:58:17.342Z,68.80
2022-11-22T01:00:45.383Z,68.00
2022-11-22T01:03:13.833Z,64.50
2022-11-22T01:05:41.803Z,78.60
2022-11-22T01:08:09.831Z,69.80
2022-11-22T01:10:38.169Z,71.00
2022-11-22T01:13:06.370Z,68.10
2022-11-22T01:15:34.282Z,70.50
2022-11-22T01:18:02.248Z,66.30
2022-11-22T01:20:30.960Z,75.90
2022-11-22T01:22:58.901Z,77.30
2022-11-22T01:25:27.248Z,74.10
2022-11-22T01:27:55.351Z,75.00
2022-11-22T01:30:23.271Z,69.70
2022-11-22T01:32:52.597Z,64.40
2022-11-22T01:35:20.470Z,68.00
2022-11-22T01:37:48.400Z,72.50
2022-11-22T01:40:16.357Z,71.10
2022-11-22T01:42:56.974Z,72.80
2022-11-22T01:45:30.934Z,65.90
2022-11-22T01:50:33.108Z,64.00
2022-11-22T01:53:07.171Z,59.40
2022-11-22T01:55:36.068Z,62.70
2022-11-22T01:58:04.486Z,61.30
2022-11-22T02:00:32.463Z,69.30
2022-11-22T02:03:04.008Z,63.70
2022-11-22T02:05:35.442Z,62.30
2022-11-22T02:12:36.394Z,96.10
2022-11-22T02:15:04.720Z,98.30
2022-11-22T02:17:32.623Z,96.40
2022-11-22T02:20:00.563Z,96.10
2022-11-22T02:22:40.579Z,90.20
2022-11-22T02:25:33.125Z,83.90
2022-11-22T02:28:04.530Z,82.80
2022-11-22T02:30:32.868Z,86.60
2022-11-22T02:33:00.816Z,90.60
2022-11-22T02:35:30.144Z,82.40
2022-11-22T02:38:21.212Z,83.50
2022-11-22T02:41:11.670Z,78.10
2022-11-22T02:43:44.320Z,77.30
2022-11-22T02:46:21.351Z,75.60
2022-11-22T02:48:50.065Z,75.30
2022-11-22T02:51:20.173Z,70.20
2022-11-22T02:53:50.128Z,81.60
2022-11-22T02:56:18.640Z,77.50
2022-11-22T02:58:46.639Z,74.60
2022-11-22T03:01:14.650Z,70.70
2022-11-22T03:03:42.670Z,67.00
2022-11-22T03:06:10.621Z,71.50
2022-11-22T03:08:38.596Z,72.80
2022-11-22T03:11:06.540Z,70.50
2022-11-22T03:13:34.420Z,79.30
2022-11-22T03:16:02.368Z,74.80
2022-11-22T03:18:30.304Z,74.50
2022-11-22T03:21:02.860Z,67.10
2022-11-22T03:23:31.219Z,84.10
2022-11-22T03:25:59.349Z,74.20
2022-11-22T03:28:27.248Z,69.40
2022-11-22T03:30:55.235Z,70.30
2022-11-22T03:33:23.152Z,65.20
2022-11-22T03:35:51.049Z,60.40
2022-11-22T03:38:18.963Z,63.10
2022-11-22T03:40:47.099Z,64.90
2022-11-22T03:43:15.039Z,62.40
2022-11-22T03:45:47.112Z,59.50
2022-11-22T03:48:15.329Z,58.60
2022-11-22T03:50:43.373Z,56.50
2022-11-22T03:53:11.892Z,61.80
2022-11-22T03:55:40.391Z,58.50
2022-11-22T03:58:08.601Z,58.20
2022-11-22T04:00:36.584Z,56.90
2022-11-22T04:03:04.511Z,52.50
2022-11-22T04:05:32.443Z,49.30
2022-11-22T04:08:00.418Z,49.90
2022-11-22T04:10:28.545Z,52.60
2022-11-22T04:12:58.385Z,48.90
2022-11-22T04:15:27.125Z,54.60
2022-11-22T04:17:55.189Z,53.00
2022-11-22T04:20:47.633Z,51.40
2022-11-22T04:23:21.588Z,49.80
2022-11-22T04:25:51.856Z,53.50
2022-11-22T04:28:35.200Z,49.50
2022-11-22T04:32:23.868Z,46.00
2022-11-22T04:34:51.785Z,37.50
2022-11-22T04:37:19.713Z,35.90
2022-11-22T04:39:47.557Z,34.80
2022-11-22T04:42:33.784Z,36.40
2022-11-22T04:45:01.972Z,36.20
2022-11-22T04:47:50.432Z,35.00
2022-11-22T04:50:37.154Z,31.60
2022-11-22T04:53:05.156Z,32.30
2022-11-22T04:55:33.093Z,30.80
2022-11-22T04:58:01.488Z,38.00
2022-11-22T05:00:30.238Z,35.80
2022-11-22T05:02:58.893Z,36.70
2022-11-22T05:05:27.211Z,31.90
2022-11-22T05:08:48.193Z,39.10
2022-11-22T05:11:16.133Z,40.00
2022-11-22T05:13:44.148Z,46.90
2022-11-22T05:16:15.305Z,51.50
2022-11-22T05:18:43.588Z,51.80
2022-11-22T05:21:14.188Z,50.50
2022-11-22T05:23:57.211Z,53.40
2022-11-22T05:26:31.558Z,51.30
2022-11-22T05:29:04.883Z,57.60
2022-11-22T05:31:34.538Z,51.40
2022-11-22T05:34:02.561Z,45.40
2022-11-22T05:36:33.131Z,38.90
2022-11-22T05:39:02.031Z,36.00
2022-11-22T05:41:30.045Z,28.60
2022-11-22T05:43:58.157Z,24.00
2022-11-22T05:46:28.751Z,25.80
2022-11-22T05:48:58.494Z,28.90
2022-11-22T05:51:34.741Z,44.10
2022-11-22T05:54:03.453Z,49.30
2022-11-22T05:56:31.439Z,46.40
2022-11-22T05:58:59.392Z,45.80
2022-11-22T06:01:27.425Z,44.30
2022-11-22T06:03:55.527Z,38.70
2022-11-22T06:06:23.460Z,34.70
2022-11-22T06:08:51.752Z,39.10
2022-11-22T06:11:25.338Z,37.90
2022-11-22T06:13:59.601Z,45.00
2022-11-22T06:16:27.594Z,49.20
2022-11-22T06:18:56.277Z,49.80
2022-11-22T06:21:25.739Z,54.00
2022-11-22T06:23:54.948Z,57.20
2022-11-22T06:26:24.377Z,60.30
2022-11-22T06:28:53.721Z,67.00
2022-11-22T06:31:24.076Z,58.50
2022-11-22T06:33:54.575Z,49.00
2022-11-22T06:36:25.391Z,43.00
2022-11-22T06:38:53.494Z,39.00
2022-11-22T06:41:24.501Z,41.90
2022-11-22T06:43:53.945Z,42.00
2022-11-22T06:46:23.606Z,40.10
2022-11-22T06:48:52.401Z,36.70
2022-11-22T06:51:23.540Z,32.00
2022-11-22T06:53:52.422Z,31.60
2022-11-22T06:56:27.069Z,30.10
2022-11-22T06:58:55.711Z,33.60
2022-11-22T07:01:29.202Z,34.30
2022-11-22T07:03:58.683Z,36.30
2022-11-22T07:06:31.918Z,35.80
2022-11-22T07:09:01.603Z,33.30
2022-11-22T07:11:31.326Z,31.80
2022-11-22T07:14:07.130Z,32.50
2022-11-22T07:16:37.575Z,32.20
2022-11-22T07:19:06.698Z,31.80
2022-11-22T07:21:35.045Z,31.80
2022-11-22T07:24:04.929Z,31.60
2022-11-22T07:26:32.863Z,30.00
2022-11-22T07:29:00.797Z,35.60
2022-11-22T07:31:28.850Z,33.30
2022-11-22T07:34:01.044Z,29.30
2022-11-22T07:36:30.419Z,25.30
2022-11-22T07:38:58.608Z,25.10
2022-11-22T07:41:26.700Z,24.20
2022-11-22T07:43:54.835Z,22.80
2022-11-22T07:46:34.219Z,24.40
2022-11-22T07:49:02.803Z,23.80
2022-11-22T07:51:31.132Z,25.70
2022-11-22T07:53:59.166Z,22.90
2022-11-22T07:56:27.256Z,22.40
2022-11-22T07:58:55.154Z,23.50
2022-11-22T08:01:23.816Z,22.40
2022-11-22T08:03:51.854Z,23.90
2022-11-22T08:06:19.763Z,23.70
2022-11-22T08:08:47.755Z,23.60
2022-11-22T08:11:15.852Z,23.80
2022-11-22T08:13:44.707Z,25.20
2022-11-22T08:16:15.544Z,25.30
2022-11-22T08:18:49.107Z,24.90
2022-11-22T08:21:19.101Z,27.50
2022-11-22T08:23:48.061Z,30.20
2022-11-22T08:26:17.606Z,26.70
2022-11-22T08:28:45.558Z,25.50
2022-11-22T08:31:18.086Z,26.50
2022-11-22T08:33:46.586Z,24.10
2022-11-22T08:36:14.656Z,27.90
2022-11-22T08:38:42.749Z,28.00
2022-11-22T08:41:11.694Z,27.70
2022-11-22T08:43:39.861Z,27.70
2022-11-22T08:46:07.834Z,23.90
2022-11-22T08:48:36.947Z,24.10
2022-11-22T08:51:08.307Z,23.00
2022-11-22T08:53:41.584Z,23.00
2022-11-22T08:56:13.262Z,25.00
2022-11-22T08:58:41.958Z,24.50
2022-11-22T09:01:13.596Z,23.20
2022-11-22T09:03:42.762Z,22.30
2022-11-22T09:09:43.381Z,21.70
2022-11-22T09:11:49.703Z,22.70
2022-11-22T09:14:17.643Z,24.40
2022-11-22T09:16:45.718Z,23.20
2022-11-22T09:19:13.804Z,22.20
2022-11-22T09:21:41.727Z,20.60
2022-11-22T09:24:09.638Z,20.70
2022-11-22T09:26:37.632Z,22.40
2022-11-22T09:29:05.528Z,21.50
2022-11-22T09:31:33.491Z,22.50
2022-11-22T09:34:01.485Z,20.40
2022-11-22T09:36:29.607Z,19.90
2022-11-22T09:38:57.685Z,20.80
2022-11-22T09:41:46.793Z,21.10
2022-11-22T09:44:36.273Z,22.80
2022-11-22T09:47:15.477Z,23.80
2022-11-22T09:50:10.856Z,22.70
2022-11-22T09:52:46.731Z,20.80
2022-11-22T09:55:24.210Z,21.40
2022-11-22T09:58:03.848Z,21.50
2022-11-22T10:00:32.246Z,22.40
2022-11-22T10:03:05.975Z,22.30
2022-11-22T10:05:50.158Z,22.50
2022-11-22T10:08:35.431Z,23.20
2022-11-22T10:11:13.664Z,24.00
2022-11-22T10:13:50.531Z,21.50
2022-11-22T10:16:26.433Z,21.20
2022-11-22T10:19:10.441Z,22.80
2022-11-22T10:21:38.379Z,21.20
2022-11-22T10:24:06.895Z,21.40
2022-11-22T10:26:37.375Z,22.50
2022-11-22T10:29:17.607Z,27.10
2022-11-22T10:32:10.262Z,21.20
2022-11-22T10:34:41.198Z,21.40
2022-11-22T10:37:44.580Z,19.70
2022-11-22T10:40:15.229Z,21.20
2022-11-22T10:42:52.244Z,22.50
2022-11-22T10:46:11.171Z,23.30
2022-11-22T10:48:50.734Z,22.00
2022-11-22T10:51:44.339Z,21.90
2022-11-22T10:54:52.800Z,24.20
2022-11-22T10:57:46.870Z,25.10
2022-11-22T11:00:22.854Z,26.20
2022-11-22T11:03:13.177Z,30.50
2022-11-22T11:09:54.939Z,24.90
2022-11-22T11:11:46.591Z,20.70
2022-11-22T11:14:35.948Z,20.20
2022-11-22T11:17:06.068Z,20.30
2022-11-22T11:19:38.920Z,19.50
2022-11-22T11:22:09.592Z,17.80
2022-11-22T11:24:40.721Z,18.60
2022-11-22T11:27:11.538Z,18.10
2022-11-22T11:29:39.420Z,16.90
2022-11-22T11:32:21.080Z,17.00
2022-11-22T11:34:57.751Z,16.80
2022-11-22T11:37:32.974Z,16.80
2022-11-22T11:40:00.994Z,16.50
2022-11-22T11:42:35.779Z,16.80
2022-11-22T11:45:18.987Z,17.40
2022-11-22T11:47:46.893Z,19.90
2022-11-22T11:50:24.527Z,18.70
2022-11-22T11:53:03.330Z,18.40
2022-11-22T11:55:35.534Z,19.50
2022-11-22T11:58:17.803Z,18.70
2022-11-22T12:00:46.046Z,19.50
2022-11-22T12:03:19.083Z,19.20
2022-11-22T12:05:47.124Z,19.20
2022-11-22T12:08:32.264Z,20.30
2022-11-22T12:11:06.526Z,18.80
2022-11-22T12:14:12.377Z,18.40
2022-11-22T12:16:40.030Z,19.10
2022-11-22T12:19:25.248Z,19.50
2022-11-22T12:22:03.891Z,18.90
2022-11-22T12:25:16.953Z,18.90
2022-11-22T12:27:42.449Z,20.50
2022-11-22T12:30:14.556Z,21.60
2022-11-22T12:32:59.425Z,20.80
2022-11-22T12:35:29.899Z,20.80
2022-11-22T12:38:11.124Z,21.00
2022-11-22T12:40:44.471Z,22.70
2022-11-22T12:43:24.711Z,23.10
2022-11-22T12:45:57.969Z,23.50
2022-11-22T12:48:34.788Z,23.80
2022-11-22T12:51:27.254Z,24.20
2022-11-22T12:54:02.903Z,25.90
2022-11-22T12:56:56.028Z,27.00
2022-11-22T12:59:37.464Z,30.30
2022-11-22T13:02:24.037Z,31.90
2022-11-22T13:05:01.831Z,33.60
2022-11-22T13:07:36.091Z,32.70
2022-11-22T13:10:20.183Z,35.20
2022-11-22T13:12:49.459Z,34.30
2022-11-22T13:15:27.297Z,34.00
2022-11-22T13:17:55.911Z,32.40
2022-11-22T13:20:29.276Z,33.00
2022-11-22T13:23:28.721Z,33.30
2022-11-22T13:26:15.155Z,36.70
2022-11-22T13:28:44.865Z,36.90
2022-11-22T13:31:17.248Z,38.00
2022-11-22T13:34:00.279Z,38.20
2022-11-22T13:36:28.362Z,35.60
2022-11-22T13:39:02.591Z,27.30
2022-11-22T13:41:38.430Z,31.70
2022-11-22T13:44:36.325Z,33.60
2022-11-22T13:47:25.123Z,34.10
2022-11-22T13:49:54.097Z,34.30
2022-11-22T13:52:22.315Z,32.80
2022-11-22T13:54:52.749Z,33.20
2022-11-22T13:57:36.094Z,33.00
2022-11-22T14:00:16.364Z,31.70
2022-11-22T14:03:29.416Z,27.00
2022-11-22T14:05:58.317Z,28.50
2022-11-22T14:08:42.751Z,30.50
2022-11-22T14:11:10.601Z,35.90
2022-11-22T14:13:52.423Z,34.40
2022-11-22T14:16:40.015Z,32.40
2022-11-22T14:19:22.908Z,31.10
2022-11-22T14:22:12.576Z,27.80
2022-11-22T14:24:58.741Z,25.10
2022-11-22T14:27:45.454Z,29.90
2022-11-22T14:30:18.680Z,31.50
2022-11-22T14:33:00.389Z,26.30
2022-11-22T14:35:34.434Z,33.00
2022-11-22T14:38:28.541Z,28.20
2022-11-22T14:41:27.821Z,27.80
2022-11-22T14:44:02.641Z,30.50
2022-11-22T14:47:02.753Z,28.00
2022-11-22T14:49:47.891Z,31.00
2022-11-22T14:52:23.496Z,31.60
2022-11-22T14:55:01.056Z,28.00
2022-11-22T14:57:32.803Z,29.40
2022-11-22T15:00:19.315Z,28.30
2022-11-22T15:03:25.077Z,28.80
2022-11-22T15:09:10.958Z,27.20
2022-11-22T15:09:39.340Z,30.20
2022-11-22T15:12:18.045Z,29.40
2022-11-22T15:57:28.320Z,24.50
2022-11-22T15:59:57.598Z,24.20
2022-11-22T16:02:30.010Z,26.40
2022-11-22T16:07:57.452Z,26.90
2022-11-22T16:10:37.750Z,26.80
2022-11-22T16:13:24.402Z,24.90
2022-11-22T16:16:10.688Z,22.90
2022-11-22T16:18:40.271Z,21.40
2022-11-22T16:21:11.471Z,20.80
2022-11-22T16:23:40.990Z,18.80
2022-11-22T16:26:21.897Z,19.90
2022-11-22T16:28:51.596Z,20.70
2022-11-22T16:31:29.029Z,20.10
2022-11-22T16:33:58.367Z,20.80
2022-11-22T16:36:29.693Z,18.40
2022-11-22T16:39:00.867Z,20.30
2022-11-22T16:41:29.603Z,19.00
2022-11-22T16:44:04.450Z,17.30
2022-11-22T16:46:32.461Z,19.80
2022-11-22T16:49:00.875Z,19.20
2022-11-22T16:51:30.166Z,17.40
2022-11-22T16:54:00.733Z,17.60
2022-11-22T16:56:32.061Z,17.60
2022-11-22T16:59:00.125Z,17.70
2022-11-22T17:01:33.259Z,21.80
2022-11-22T17:04:02.895Z,22.40
2022-11-22T17:06:32.022Z,22.50
2022-11-22T17:09:01.010Z,21.50
2022-11-22T17:11:32.418Z,19.50
2022-11-22T17:14:01.087Z,21.70
2022-11-22T17:16:29.344Z,21.60
2022-11-22T17:18:57.260Z,23.00
2022-11-22T17:21:37.265Z,22.70
2022-11-22T17:24:13.295Z,24.80
2022-11-22T17:26:41.232Z,23.80
2022-11-22T17:29:18.402Z,30.20
2022-11-22T17:31:57.154Z,26.80
2022-11-22T17:34:25.141Z,28.70
2022-11-22T17:36:53.146Z,28.10
2022-11-22T17:39:21.108Z,31.20
2022-11-22T17:41:49.567Z,32.90
2022-11-22T17:44:18.368Z,34.40
2022-11-22T17:51:26.150Z,32.40
2022-11-22T17:53:55.008Z,32.00
2022-11-22T17:56:22.853Z,34.30
2022-11-22T17:58:50.974Z,33.10
2022-11-22T18:01:22.877Z,32.70
2022-11-22T18:03:51.638Z,34.30
2022-11-22T18:06:23.519Z,34.70
2022-11-22T18:11:22.032Z,34.60
2022-11-22T18:13:49.918Z,34.70
2022-11-22T18:16:18.616Z,38.20
2022-11-22T18:19:02.031Z,37.00
2022-11-22T18:21:32.505Z,36.10
2022-11-22T18:24:01.440Z,39.00
2022-11-22T18:26:44.914Z,37.00
2022-11-22T18:32:03.027Z,47.20
2022-11-22T18:34:33.692Z,53.70
2022-11-22T18:37:04.574Z,52.50
2022-11-22T18:39:36.582Z,57.70
2022-11-22T18:42:07.123Z,49.20
2022-11-22T18:44:35.239Z,45.00
2022-11-22T18:47:05.526Z,41.30
2022-11-22T18:49:33.970Z,42.30
2022-11-22T18:52:04.928Z,39.70
2022-11-22T18:54:35.996Z,39.60
2022-11-22T18:57:04.147Z,38.10
2022-11-22T18:59:32.457Z,35.70
2022-11-22T19:02:00.448Z,39.90
2022-11-22T19:04:28.942Z,40.80
2022-11-22T19:07:04.512Z,45.70
2022-11-22T19:09:35.661Z,44.10
2022-11-22T19:12:08.609Z,43.90
2022-11-22T19:14:36.620Z,48.20
2022-11-22T19:17:05.488Z,47.80
2022-11-22T19:19:33.497Z,48.50
2022-11-22T19:22:02.594Z,44.70
2022-11-22T19:24:33.891Z,47.30
2022-11-22T19:27:04.765Z,43.20
2022-11-22T19:29:33.226Z,42.70
2022-11-22T19:32:01.671Z,43.90
2022-11-22T19:34:30.040Z,43.60
2022-11-22T19:37:00.381Z,41.90
2022-11-22T19:39:28.693Z,41.90
2022-11-22T19:41:56.915Z,44.00
2022-11-22T19:44:24.889Z,44.00
2022-11-22T19:46:52.815Z,45.60
2022-11-22T19:49:20.737Z,48.10
2022-11-22T19:51:48.770Z,49.10
2022-11-22T19:54:17.747Z,48.30
2022-11-22T19:56:45.783Z,46.70
2022-11-22T19:59:16.174Z,46.40
2022-11-22T20:01:48.742Z,47.10
2022-11-22T20:04:16.893Z,46.70
2022-11-22T20:06:50.382Z,49.80
2022-11-22T20:09:20.444Z,53.60
2022-11-22T20:11:48.418Z,50.80
2022-11-22T20:14:17.133Z,50.30
2022-11-22T20:16:45.183Z,48.00
2022-11-22T20:19:13.166Z,50.00
2022-11-22T20:21:41.517Z,51.80
2022-11-22T20:24:09.842Z,49.60
2022-11-22T20:26:37.838Z,52.00
2022-11-22T20:29:08.240Z,52.50
2022-11-22T20:31:37.985Z,48.80
2022-11-22T20:34:06.111Z,46.70
2022-11-22T20:36:35.299Z,48.90
2022-11-22T20:39:09.834Z,49.10
2022-11-22T20:41:40.137Z,51.20
2022-11-22T20:44:13.119Z,59.20
2022-11-22T20:46:41.722Z,66.90
2022-11-22T20:49:09.735Z,61.20
2022-11-22T20:51:39.952Z,56.20
2022-11-22T20:54:08.996Z,53.20
2022-11-22T20:56:38.136Z,55.10
2022-11-22T20:59:06.205Z,57.30
2022-11-22T21:01:34.379Z,57.70
2022-11-22T21:04:05.776Z,60.10
2022-11-22T21:06:36.641Z,62.30
2022-11-22T21:09:04.851Z,58.10
2022-11-22T21:11:32.828Z,55.10
2022-11-22T21:14:00.883Z,60.40
2022-11-22T21:16:29.893Z,60.60
2022-11-22T21:19:04.884Z,61.40
2022-11-22T21:21:35.895Z,61.20
2022-11-22T21:24:05.543Z,60.10
2022-11-22T21:26:35.814Z,58.80
2022-11-22T21:29:05.223Z,58.40
2022-11-22T21:31:33.158Z,59.50
2022-11-22T21:34:01.120Z,60.40
2022-11-22T21:36:29.075Z,61.20
2022-11-22T21:38:56.974Z,59.80
2022-11-22T21:41:41.209Z,56.60
2022-11-22T21:46:53.306Z,59.80
2022-11-22T21:49:21.537Z,59.10
2022-11-22T21:51:49.583Z,58.30
2022-11-22T21:54:17.733Z,61.20
2022-11-22T21:56:45.609Z,69.10
2022-11-22T21:59:13.636Z,66.70
2022-11-22T22:01:41.564Z,68.30
2022-11-22T22:04:09.585Z,68.30
2022-11-22T22:06:37.467Z,64.80
2022-11-22T22:09:07.502Z,66.00
2022-11-22T22:11:35.418Z,67.60
2022-11-22T22:14:03.323Z,67.00
2022-11-22T22:16:31.260Z,62.70
2022-11-22T22:19:03.381Z,69.20
2022-11-22T22:21:33.730Z,64.60
2022-11-22T22:24:06.742Z,57.40
2022-11-22T22:26:34.623Z,53.70
2022-11-22T22:29:02.627Z,57.60
2022-11-22T22:31:33.838Z,54.80
2022-11-22T22:34:03.342Z,55.80
2022-11-22T22:36:31.310Z,55.30
2022-11-22T22:38:59.223Z,59.30
2022-11-22T22:41:27.178Z,56.10
2022-11-22T22:43:57.972Z,54.30
2022-11-22T22:46:26.078Z,54.10
2022-11-22T22:48:57.123Z,59.60
2022-11-22T22:51:32.950Z,68.70
2022-11-22T22:54:04.281Z,66.60
2022-11-22T22:56:32.458Z,66.40
2022-11-22T22:59:02.258Z,62.90
2022-11-22T23:01:31.469Z,54.90
2022-11-22T23:04:04.589Z,53.30
2022-11-22T23:06:37.335Z,52.30
2022-11-22T23:13:06.038Z,65.30
2022-11-22T23:15:57.422Z,63.00
2022-11-22T23:18:36.541Z,65.80
2022-11-22T23:21:16.035Z,59.20
2022-11-22T23:24:08.904Z,64.10
2022-11-22T23:26:42.485Z,64.10
2022-11-22T23:29:17.006Z,61.30
2022-11-22T23:34:23.046Z,69.60
2022-11-22T23:36:50.955Z,68.50
2022-11-22T23:39:25.014Z,69.80
2022-11-22T23:42:00.547Z,64.50
2022-11-22T23:44:29.408Z,63.20
2022-11-22T23:46:57.289Z,62.40
2022-11-22T23:49:25.208Z,64.90
2022-11-22T23:51:53.098Z,63.60
2022-11-22T23:54:21.019Z,60.50
2022-11-22T23:56:48.957Z,57.10
2022-11-22T23:59:18.455Z,62.20
